Time;durP1;ratioP1;P1;durP2;ratioP2;P2;SDS_P1;SDS_P2;PMS_P1;PMS_P2;Temp;Humidity;BMP_temperature;BMP_pressure;BME280_temperature;BME280_humidity;BME280_pressure;Samples;Min_cycle;Max_cycle;Signal;HPM_P1;HPM_P2
2021/08/15 00:00:11;;;;;;;1.00;0.50;;;;;;;18.11;71.09;100740.28;2627113;36;20065;-77
2021/08/15 00:02:39;;;;;;;0.95;0.45;;;;;;;18.09;71.03;100737.69;2633334;36;20038;-77
2021/08/15 00:05:07;;;;;;;0.93;0.43;;;;;;;18.10;71.03;100733.28;2631903;36;20581;-78
2021/08/15 00:07:38;;;;;;;;;;;;;;;18.16;69.36;100738.25;2628644;36;20031;-77
2021/08/15 00:10:06;;;;;;;1.02;0.50;;;;;;;18.12;71.02;100731.41;2644875;36;19946;-77
2021/08/15 00:12:35;;;;;;;1.10;0.52;;;;;;;18.14;71.00;100724.25;2644631;36;20079;-76
2021/08/15 00:15:04;;;;;;;0.88;0.52;;;;;;;18.03;71.00;100711.59;2638686;36;20033;-77
2021/08/15 00:17:31;;;;;;;1.58;0.63;;;;;;;18.11;71.59;100719.13;2626874;36;20082;-77
2021/08/15 00:19:58;;;;;;;0.77;0.40;;;;;;;18.10;71.32;100712.16;2627888;36;20041;-77
2021/08/15 00:22:25;;;;;;;1.10;0.40;;;;;;;18.11;71.03;100708.56;2673298;36;20046;-77
2021/08/15 00:24:53;;;;;;;1.45;0.70;;;;;;;18.15;71.59;100710.13;2646002;36;20023;-78
2021/08/15 00:27:21;;;;;;;0.82;0.50;;;;;;;18.11;71.05;100714.72;2645659;36;20073;-77
2021/08/15 00:29:48;;;;;;;1.10;0.65;;;;;;;18.12;71.00;100715.56;2666333;36;20023;-77
2021/08/15 00:32:15;;;;;;;2.35;0.98;;;;;;;18.04;71.71;100699.25;2645013;36;20042;-77
2021/08/15 00:34:42;;;;;;;2.25;0.88;;;;;;;18.04;71.15;100699.25;2663946;36;20538;-77
2021/08/15 00:37:09;;;;;;;2.47;1.13;;;;;;;17.98;71.28;100697.78;2646265;36;20023;-76
2021/08/15 00:39:48;;;;;;;1.95;0.85;;;;;;;18.09;70.61;100705.13;2644935;36;20426;-78
2021/08/15 00:42:17;;;;;;;1.80;0.80;;;;;;;18.01;71.25;100686.22;2646519;36;20560;-77
2021/08/15 00:44:44;;;;;;;2.97;1.27;;;;;;;18.00;71.63;100692.44;2627990;36;20026;-78
2021/08/15 00:47:11;;;;;;;2.50;0.93;;;;;;;17.96;71.69;100682.97;2626336;36;20049;-77
2021/08/15 00:49:38;;;;;;;1.60;0.80;;;;;;;18.04;71.26;100696.59;2628080;36;20057;-77
2021/08/15 00:52:06;;;;;;;2.88;1.25;;;;;;;18.07;71.50;100701.75;2692230;36;20026;-77
2021/08/15 00:54:35;;;;;;;2.75;1.15;;;;;;;18.08;71.22;100692.88;2645819;36;20073;-77
2021/08/15 00:57:06;;;;;;;2.90;0.95;;;;;;;18.09;71.07;100705.13;2629067;36;20038;-78
2021/08/15 00:59:43;;;;;;;2.25;0.88;;;;;;;18.08;70.52;100699.00;2706007;36;20011;-77
2021/08/15 01:02:11;;;;;;;1.67;0.70;;;;;;;18.00;71.27;100679.22;2649831;36;20030;-77
2021/08/15 01:04:40;;;;;;;2.45;1.05;;;;;;;18.05;71.59;100682.47;2673482;36;20732;-76
2021/08/15 01:07:07;;;;;;;2.00;1.00;;;;;;;18.00;71.36;100668.66;2716842;36;20038;-77
2021/08/15 01:09:34;;;;;;;2.30;0.88;;;;;;;18.03;71.53;100689.63;2627370;36;20106;-77
2021/08/15 01:12:02;;;;;;;2.95;1.33;;;;;;;18.07;71.42;100680.59;2658723;36;20041;-77
2021/08/15 01:14:29;;;;;;;2.35;1.10;;;;;;;17.93;71.56;100662.00;2657879;36;20057;-77
2021/08/15 01:16:58;;;;;;;3.67;1.80;;;;;;;17.93;71.16;100657.56;2627883;36;20054;-78
2021/08/15 01:19:29;;;;;;;3.47;1.13;;;;;;;18.07;71.38;100680.59;2641285;36;20055;-78
2021/08/15 01:21:57;;;;;;;4.10;1.60;;;;;;;18.05;71.84;100682.47;2661578;36;20456;-77
2021/08/15 01:24:26;;;;;;;3.35;1.55;;;;;;;17.96;71.71;100661.84;2627508;36;20075;-77
2021/08/15 01:26:53;;;;;;;4.22;1.35;;;;;;;18.03;71.77;100676.41;2625799;36;2004970;-77
2021/08/15 01:29:22;;;;;;;3.25;1.20;;;;;;;18.05;71.51;100672.75;2663329;36;20042;-77
2021/08/15 01:31:50;;;;;;;4.32;1.90;;;;;;;18.02;71.88;100666.78;2660821;36;20901;-78
2021/08/15 01:34:17;;;;;;;;;;;;;;;18.07;69.72;100667.38;2626941;36;20110;-77
2021/08/15 01:36:44;;;;;;;2.28;0.80;;;;;;;17.90;71.29;100655.09;2636508;36;19939;-76
2021/08/15 01:39:18;;;;;;;5.43;1.42;;;;;;;17.98;70.96;100649.38;2638104;36;20078;-77
2021/08/15 01:41:45;;;;;;;2.83;1.40;;;;;;;17.84;71.42;100643.06;2647610;36;20034;-77
2021/08/15 01:44:13;;;;;;;4.20;1.80;;;;;;;17.92;71.92;100660.28;2640596;36;20034;-77
2021/08/15 01:46:40;;;;;;;2.70;1.17;;;;;;;17.86;71.45;100646.47;2689879;36;20865;-77
2021/08/15 01:49:10;;;;;;;4.35;1.75;;;;;;;17.91;71.45;100653.31;2659036;36;20030;-77
2021/08/15 01:51:38;;;;;;;3.17;1.52;;;;;;;17.85;71.66;100643.91;2637491;36;20054;-77
2021/08/15 01:54:06;;;;;;;2.40;0.98;;;;;;;17.89;71.84;100653.38;2627137;36;20112;-77
2021/08/15 01:56:39;;;;;;;4.07;1.42;;;;;;;17.93;71.36;100648.78;2638640;36;20030;-77
2021/08/15 01:59:07;;;;;;;2.40;1.00;;;;;;;17.86;71.52;100646.47;2656904;36;20544;-77
2021/08/15 02:01:34;;;;;;;1.02;0.60;;;;;;;17.91;71.70;100642.72;2675016;36;20070;-78
2021/08/15 02:04:03;;;;;;;2.70;0.90;;;;;;;17.91;71.56;100645.38;2646194;36;20038;-77
2021/08/15 02:06:31;;;;;;;5.93;1.98;;;;;;;17.89;71.77;100638.41;2666821;36;20082;-78
2021/08/15 02:09:00;;;;;;;2.60;1.30;;;;;;;17.89;71.62;100635.75;2627086;36;20037;-77
2021/08/15 02:11:29;;;;;;;3.90;1.75;;;;;;;17.92;71.65;100639.16;2628103;36;20615;-77
2021/08/15 02:14:02;;;;;;;3.88;1.50;;;;;;;17.90;71.30;100636.59;2636523;36;2004320;-76
2021/08/15 02:16:29;;;;;;;3.85;1.58;;;;;;;17.85;71.96;100625.44;2692035;36;20037;-77
2021/08/15 02:18:56;;;;;;;2.67;1.20;;;;;;;17.84;71.54;100626.34;2627708;36;20034;-78
2021/08/15 02:21:23;;;;;;;3.50;1.38;;;;;;;17.79;72.04;100608.13;2630160;36;20038;-76
2021/08/15 02:23:50;;;;;;;3.03;1.48;;;;;;;17.86;71.67;100625.34;2635933;36;20063;-78
2021/08/15 02:26:17;;;;;;;2.58;1.45;;;;;;;17.84;71.76;100621.06;2657859;36;20030;-77
2021/08/15 02:28:44;;;;;;;4.93;1.55;;;;;;;17.83;71.60;100620.22;2663944;36;20042;-78
2021/08/15 02:31:12;;;;;;;2.60;1.00;;;;;;;17.80;71.96;100609.81;2647543;36;20008;-77
2021/08/15 02:33:43;;;;;;;2.95;1.20;;;;;;;17.91;71.60;100621.59;2645024;36;20153;-77
2021/08/15 02:36:11;;;;;;;1.52;0.80;;;;;;;17.86;71.63;100608.63;2646508;36;20605;-77
2021/08/15 02:38:43;;;;;;;1.73;0.90;;;;;;;17.91;71.68;100592.53;2645927;36;20131;-77
2021/08/15 02:41:11;;;;;;;1.55;0.70;;;;;;;17.86;71.54;100591.00;2628502;36;20101;-77
2021/08/15 02:43:39;;;;;;;2.17;0.93;;;;;;;17.85;71.90;100591.94;2640491;36;20030;-77
2021/08/15 02:46:07;;;;;;;2.35;0.98;;;;;;;17.86;71.86;100588.34;2636249;36;20034;-76
2021/08/15 02:48:34;;;;;;;3.92;0.82;;;;;;;17.80;71.84;100580.78;2654331;36;20037;-77
2021/08/15 02:51:05;;;;;;;;;;;;;;;17.91;70.03;100584.63;2641546;36;20023;-77
2021/08/15 02:53:32;;;;;;;1.42;0.50;;;;;;;17.76;71.45;100568.66;2600187;36;2004367;-77
2021/08/15 02:55:59;;;;;;;1.70;0.60;;;;;;;17.82;71.74;100580.69;2642416;36;20026;-77
2021/08/15 02:58:27;;;;;;;1.42;0.40;;;;;;;17.76;71.62;100581.00;2633804;36;20042;-77
2021/08/15 03:00:58;;;;;;;1.02;0.40;;;;;;;17.83;71.67;100588.50;2673670;36;21089;-78
2021/08/15 03:03:29;;;;;;;1.52;0.70;;;;;;;17.79;71.19;100571.16;2645862;36;20030;-78
2021/08/15 03:05:57;;;;;;;0.73;0.47;;;;;;;17.78;71.94;100573.84;2671281;36;20039;-77
2021/08/15 03:08:24;;;;;;;6.13;0.73;;;;;;;17.77;71.92;100588.00;2673234;36;20038;-77
2021/08/15 03:10:52;;;;;;;1.40;0.60;;;;;;;17.78;72.13;100582.63;2638485;36;20027;-77
2021/08/15 03:13:19;;;;;;;2.22;0.45;;;;;;;17.73;71.75;100579.38;2628732;36;20030;-77
2021/08/15 03:15:45;;;;;;;1.90;0.63;;;;;;;17.75;71.84;100574.03;2640304;36;20129;-77
2021/08/15 03:18:16;;;;;;;2.33;0.60;;;;;;;17.70;71.65;100561.03;2628761;36;20033;-78
2021/08/15 03:20:45;;;;;;;1.05;0.60;;;;;;;17.75;71.34;100563.47;2656291;36;20023;-77
2021/08/15 03:23:14;;;;;;;1.13;0.50;;;;;;;17.76;71.79;100571.31;2676283;36;20050;-77
2021/08/15 03:25:42;;;;;;;2.20;0.40;;;;;;;17.71;71.67;100575.09;2693031;36;20019;-78
2021/08/15 03:28:09;;;;;;;0.88;0.50;;;;;;;17.72;71.89;100580.28;2655888;36;20050;-77
2021/08/15 03:30:36;;;;;;;1.95;0.30;;;;;;;17.71;71.71;100568.03;2655783;36;20574;-77
2021/08/15 03:33:04;;;;;;;0.60;0.30;;;;;;;17.68;71.91;100573.47;2711455;36;20087;-77
2021/08/15 03:35:37;;;;;;;0.60;0.50;;;;;;;17.75;71.84;100566.97;2640324;36;20566;-77
2021/08/15 03:38:05;;;;;;;1.23;0.60;;;;;;;17.68;71.86;100565.53;2632596;36;2004598;-77
2021/08/15 03:40:33;;;;;;;0.57;0.40;;;;;;;17.67;71.61;100555.91;2647652;36;20026;-78
2021/08/15 03:43:00;;;;;;;0.82;0.38;;;;;;;17.71;71.67;100568.03;2643281;36;20038;-77
2021/08/15 03:45:27;;;;;;;0.27;0.27;;;;;;;17.66;71.89;100553.38;2629671;36;20086;-77
2021/08/15 03:47:55;;;;;;;0.43;0.38;;;;;;;17.72;71.73;100564.44;2629053;36;20048;-77
2021/08/15 03:50:23;;;;;;;0.65;0.40;;;;;;;17.76;71.96;100566.03;2637943;36;20069;-77
2021/08/15 03:52:50;;;;;;;1.23;0.57;;;;;;;17.70;71.71;100558.41;2652959;36;20534;-77
2021/08/15 03:55:21;;;;;;;1.45;0.57;;;;;;;17.73;71.55;100560.88;2657532;36;20027;-77
2021/08/15 03:57:48;;;;;;;3.75;0.90;;;;;;;17.72;71.50;100559.16;2639589;36;20030;-78
2021/08/15 04:00:16;;;;;;;;;;;;;;;17.80;70.68;100556.16;2645394;36;20037;-78
2021/08/15 04:02:42;;;;;;;3.38;0.50;;;;;;;17.74;71.82;100559.97;2669753;36;19957;-77
2021/08/15 04:05:11;;;;;;;5.55;1.15;;;;;;;17.71;71.56;100552.19;2643919;36;20122;-78
2021/08/15 04:07:38;;;;;;;1.85;0.60;;;;;;;17.67;72.00;100550.63;2672875;36;20573;-77
2021/08/15 04:10:08;;;;;;;1.73;0.57;;;;;;;17.69;71.73;100548.78;2642601;36;20152;-78
2021/08/15 04:12:36;;;;;;;0.90;0.50;;;;;;;17.73;71.96;100547.69;2644684;36;20624;-77
2021/08/15 04:15:05;;;;;;;1.33;0.60;;;;;;;17.69;72.14;100543.50;2625195;36;20129;-77
2021/08/15 04:17:39;;;;;;;0.70;0.60;;;;;;;17.75;71.42;100553.75;2644731;36;20027;-77
2021/08/15 04:20:07;;;;;;;1.13;0.50;;;;;;;17.71;72.35;100551.34;2644555;36;20034;-78
2021/08/15 04:22:36;;;;;;;2.33;0.98;;;;;;;17.72;71.75;100543.31;2630649;36;20039;-77
2021/08/15 04:25:07;;;;;;;1.50;0.93;;;;;;;17.73;72.31;100549.47;2628329;36;20065;-76
2021/08/15 04:27:34;;;;;;;2.78;0.70;;;;;;;17.71;72.19;100546.06;2627717;36;21517;-77
2021/08/15 04:30:08;;;;;;;1.95;0.80;;;;;;;17.74;71.80;100541.50;2633409;36;20094;-77
2021/08/15 04:32:36;;;;;;;2.10;0.70;;;;;;;17.70;72.02;100539.91;2656631;36;20037;-77
2021/08/15 04:35:04;;;;;;;2.85;1.00;;;;;;;17.65;72.04;100536.69;2637440;36;20948;-77
2021/08/15 04:37:32;;;;;;;0.63;0.43;;;;;;;17.70;72.08;100541.72;2640672;36;20023;-77
2021/08/15 04:39:59;;;;;;;2.58;0.95;;;;;;;17.67;72.18;100533.94;2650649;36;20489;-77
2021/08/15 04:42:34;;;;;;;1.67;0.50;;;;;;;17.73;71.51;100539.75;2639529;36;20100;-77
2021/08/15 04:45:01;;;;;;;1.98;0.98;;;;;;;17.70;72.02;100549.63;2646889;36;20038;-77
2021/08/15 04:47:28;;;;;;;1.88;0.60;;;;;;;17.70;72.03;100547.84;2637942;36;20462;-78
2021/08/15 04:49:58;;;;;;;1.70;0.63;;;;;;;17.71;71.78;100543.41;2650881;36;20102;-78
2021/08/15 04:52:26;;;;;;;0.65;0.43;;;;;;;17.62;71.83;100526.28;2646138;36;20030;-77
2021/08/15 04:54:53;;;;;;;2.22;0.40;;;;;;;17.64;71.79;100521.78;2626708;36;20539;-77
2021/08/15 04:57:20;;;;;;;0.80;0.73;;;;;;;17.72;71.99;100527.47;2662424;36;22335;-77
2021/08/15 04:59:48;;;;;;;0.90;0.50;;;;;;;17.67;72.10;100521.59;2628748;36;20046;-77
2021/08/15 05:02:15;;;;;;;1.48;0.60;;;;;;;17.69;71.86;100524.13;2645080;36;2004623;-78
2021/08/15 05:04:43;;;;;;;0.95;0.43;;;;;;;17.65;71.81;100526.13;2660245;36;20038;-78
2021/08/15 05:07:12;;;;;;;0.98;0.35;;;;;;;17.72;72.04;100539.81;2627886;36;20019;-78
2021/08/15 05:09:42;;;;;;;1.98;0.50;;;;;;;17.69;71.53;100532.06;2637703;36;20035;-77
2021/08/15 05:12:11;;;;;;;1.23;0.43;;;;;;;17.58;71.73;100524.72;2661076;36;20031;-77
2021/08/15 05:14:38;;;;;;;0.25;0.20;;;;;;;17.65;72.15;100541.97;2660686;36;20038;-76
2021/08/15 05:17:06;;;;;;;2.10;0.82;;;;;;;17.70;72.26;100549.63;2628573;36;20589;-77
2021/08/15 05:19:34;;;;;;;2.45;0.60;;;;;;;17.68;72.06;100551.50;2637806;36;20030;-77
2021/08/15 05:22:02;;;;;;;1.85;0.70;;;;;;;17.69;72.06;100548.78;2695216;36;20071;-77
2021/08/15 05:24:29;;;;;;;1.92;0.82;;;;;;;17.69;72.13;100547.91;2627501;36;21208;-77
2021/08/15 05:26:55;;;;;;;1.33;0.70;;;;;;;17.68;72.25;100547.06;2627203;36;20041;-77
2021/08/15 05:29:23;;;;;;;2.20;0.70;;;;;;;17.63;72.17;100543.81;2626865;36;20022;-77
2021/08/15 05:31:50;;;;;;;2.10;0.90;;;;;;;17.65;72.30;100544.59;2628649;36;20053;-77
2021/08/15 05:34:19;;;;;;;2.67;1.00;;;;;;;17.57;72.16;100518.59;2627865;36;20671;-78
2021/08/15 05:36:55;;;;;;;1.63;0.70;;;;;;;17.73;71.71;100545.03;2646888;36;20811;-77
2021/08/15 05:39:22;;;;;;;2.42;0.80;;;;;;;17.68;72.10;100547.06;2646311;36;20038;-77
2021/08/15 05:41:53;;;;;;;2.50;1.10;;;;;;;17.72;71.92;100542.47;2657577;36;20036;-78
2021/08/15 05:44:21;;;;;;;2.22;0.93;;;;;;;17.63;71.99;100533.25;2638020;36;20027;-78
2021/08/15 05:46:54;;;;;;;2.70;0.90;;;;;;;17.68;72.03;100541.78;2647262;36;20027;-77
2021/08/15 05:49:22;;;;;;;3.47;0.90;;;;;;;17.69;72.38;100537.34;2658894;36;20038;-77
2021/08/15 05:51:49;;;;;;;1.77;0.77;;;;;;;17.69;72.22;100551.44;2687857;36;20042;-77
2021/08/15 05:54:17;;;;;;;1.75;0.93;;;;;;;17.65;72.18;100541.97;2689557;36;20067;-77
2021/08/15 05:56:44;;;;;;;1.90;0.80;;;;;;;17.59;72.18;100526.47;2627820;36;20050;-77
2021/08/15 05:59:13;;;;;;;1.98;0.68;;;;;;;17.75;72.09;100548.47;2676741;36;20034;-77
2021/08/15 06:01:41;;;;;;;1.55;0.60;;;;;;;17.70;72.39;100545.19;2647019;36;20041;-78
2021/08/15 06:04:08;;;;;;;2.70;0.80;;;;;;;17.72;72.26;100543.31;2662507;36;20029;-77
2021/08/15 06:06:36;;;;;;;1.65;0.93;;;;;;;17.77;72.22;100543.94;2673758;36;20052;-78
2021/08/15 06:09:05;;;;;;;2.97;0.90;;;;;;;17.78;71.94;100543.00;2653080;36;20042;-77
2021/08/15 06:11:32;;;;;;;2.55;0.93;;;;;;;17.69;72.44;100524.13;2628005;36;20026;-78
2021/08/15 06:14:02;;;;;;;1.92;0.70;;;;;;;17.77;72.04;100530.75;2627622;36;20050;-77
2021/08/15 06:16:29;;;;;;;2.50;0.85;;;;;;;17.84;72.29;100537.41;2658831;36;25426;-77
2021/08/15 06:18:56;;;;;;;2.35;0.90;;;;;;;17.85;72.13;100528.53;2705677;36;20035;-78
2021/08/15 06:21:24;;;;;;;5.32;1.10;;;;;;;17.80;72.14;100514.72;2652605;36;20054;-77
2021/08/15 06:23:52;;;;;;;2.42;0.88;;;;;;;17.81;72.40;100505.88;2633150;36;20038;-78
2021/08/15 06:26:20;;;;;;;2.22;1.00;;;;;;;17.90;72.22;100525.66;2637237;36;20088;-77
2021/08/15 06:28:51;;;;;;;2.80;1.10;;;;;;;17.90;72.34;100517.72;2636528;36;20075;-78
2021/08/15 06:31:23;;;;;;;2.47;0.90;;;;;;;17.97;72.01;100531.44;2630269;36;21389;-78
2021/08/15 06:33:52;;;;;;;1.35;0.70;;;;;;;17.99;71.97;100543.59;2645610;36;20030;-77
2021/08/15 06:36:19;;;;;;;2.72;0.85;;;;;;;17.98;72.32;100541.06;2647778;36;20022;-77
2021/08/15 06:38:46;;;;;;;1.67;0.70;;;;;;;18.00;72.24;100539.19;2636800;36;24756;-77
2021/08/15 06:41:13;;;;;;;2.40;0.77;;;;;;;18.04;71.83;100543.34;2644406;36;20551;-77
2021/08/15 06:43:42;;;;;;;5.60;1.23;;;;;;;18.08;71.43;100539.59;2636553;36;20027;-77
2021/08/15 06:46:09;;;;;;;4.43;0.98;;;;;;;18.13;71.30;100537.53;2644093;36;20038;-77
2021/08/15 06:48:36;;;;;;;1.95;0.70;;;;;;;18.13;71.45;100534.91;2626907;36;20065;-77
2021/08/15 06:51:03;;;;;;;3.22;0.75;;;;;;;18.08;71.50;100529.03;2644946;36;20039;-78
2021/08/15 06:53:35;;;;;;;3.00;0.80;;;;;;;18.22;70.93;100552.88;2626601;36;20150;-77
2021/08/15 06:56:05;;;;;;;2.35;0.60;;;;;;;18.23;71.47;100570.44;2627268;36;20026;-77
2021/08/15 06:58:36;;;;;;;2.55;0.68;;;;;;;18.23;71.17;100562.50;2628018;36;20022;-78
2021/08/15 07:01:03;;;;;;;2.08;0.50;;;;;;;18.26;71.16;100559.72;2643872;36;20041;-77
2021/08/15 07:03:31;;;;;;;4.05;1.05;;;;;;;18.29;70.93;100553.38;2627804;36;20030;-78
2021/08/15 07:05:58;;;;;;;4.03;0.90;;;;;;;18.36;70.57;100560.88;2638546;36;20656;-78
2021/08/15 07:08:28;;;;;;;2.65;0.93;;;;;;;18.41;70.40;100561.47;2625749;36;20034;-77
2021/08/15 07:10:55;;;;;;;1.63;0.50;;;;;;;18.45;70.71;100558.63;2645860;36;21905;-78
2021/08/15 07:13:24;;;;;;;2.67;0.73;;;;;;;18.51;70.38;100555.66;2626377;36;20467;-77
2021/08/15 07:15:52;;;;;;;0.70;0.52;;;;;;;18.51;70.70;100558.31;2645399;36;20038;-78
2021/08/15 07:18:22;;;;;;;;;;;;;;;18.69;69.80;100570.47;2625375;36;20094;-78
2021/08/15 07:20:54;;;;;;;2.20;0.60;;;;;;;18.66;70.02;100578.56;2631285;36;20674;-77
2021/08/15 07:23:22;;;;;;;2.15;0.63;;;;;;;18.67;69.60;100580.28;2633278;36;20657;-77
2021/08/15 07:25:49;;;;;;;1.73;0.60;;;;;;;18.72;69.91;100591.47;2626518;36;20460;-77
2021/08/15 07:28:16;;;;;;;4.13;1.13;;;;;;;18.77;69.66;100597.34;2644888;36;20034;-78
2021/08/15 07:30:43;;;;;;;0.93;0.50;;;;;;;18.80;70.11;100591.84;2624695;36;20080;-77
2021/08/15 07:33:12;;;;;;;2.72;0.47;;;;;;;18.87;69.52;100589.72;2643195;36;20124;-77
2021/08/15 07:35:40;;;;;;;3.70;0.80;;;;;;;18.86;68.59;100588.88;2625596;36;20060;-77
2021/08/15 07:38:10;;;;;;;1.17;0.50;;;;;;;18.95;68.78;100578.66;2643154;36;20676;-77
2021/08/15 07:40:37;;;;;;;0.80;0.50;;;;;;;18.95;68.96;100583.97;2665352;36;20632;-78
2021/08/15 07:43:05;;;;;;;1.38;0.60;;;;;;;19.04;68.93;100588.72;2624889;36;20129;-78
2021/08/15 07:45:33;;;;;;;3.13;0.60;;;;;;;18.99;69.33;100565.16;2625239;36;20034;-76
2021/08/15 07:48:02;;;;;;;2.97;0.70;;;;;;;19.12;68.55;100570.59;2624566;36;20082;-77
2021/08/15 07:50:36;;;;;;;3.13;0.85;;;;;;;19.10;68.14;100551.28;2624248;36;20578;-78
2021/08/15 07:53:21;;;;;;;1.98;0.65;;;;;;;19.23;68.42;100562.84;2642226;36;20038;-78
2021/08/15 07:55:51;;;;;;;2.53;0.73;;;;;;;19.24;68.04;100559.25;2640621;36;20035;-77
2021/08/15 07:58:19;;;;;;;5.22;1.15;;;;;;;19.28;67.88;100550.19;2650277;36;20678;-77
2021/08/15 08:00:53;;;;;;;7.35;1.20;;;;;;;19.37;67.88;100549.63;2641711;36;20102;-77
2021/08/15 08:03:22;;;;;;;1.58;0.50;;;;;;;19.39;68.33;100553.00;2641809;36;20030;-78
2021/08/15 08:05:49;;;;;;;4.25;0.90;;;;;;;19.49;67.51;100552.44;2642075;36;20030;-78
2021/08/15 08:08:16;;;;;;;2.47;0.50;;;;;;;19.56;67.91;100548.44;2623616;36;20054;-77
2021/08/15 08:10:44;;;;;;;;;;;;;;;19.70;68.08;100549.31;2624179;36;20042;-77
2021/08/15 08:13:15;;;;;;;3.10;0.60;;;;;;;19.70;67.43;100545.81;2641326;36;20651;-77
2021/08/15 08:15:43;;;;;;;2.13;0.70;;;;;;;19.64;67.28;100538.28;2623345;36;20034;-78
2021/08/15 08:18:11;;;;;;;1.40;0.80;;;;;;;19.72;67.18;100549.25;2642997;36;20043;-77
2021/08/15 08:20:40;;;;;;;2.58;0.60;;;;;;;19.66;67.37;100539.88;2632854;36;20019;-78
2021/08/15 08:23:10;;;;;;;2.00;0.50;;;;;;;19.84;67.48;100564.34;2623874;36;20596;-78
2021/08/15 08:25:39;;;;;;;1.13;0.50;;;;;;;19.91;67.44;100564.81;2641707;36;21096;-77
2021/08/15 08:28:06;;;;;;;2.70;0.65;;;;;;;19.90;67.73;100561.31;2639881;36;20030;-77
2021/08/15 08:30:34;;;;;;;2.53;0.75;;;;;;;19.93;67.04;100558.47;2627452;36;20054;-77
2021/08/15 08:33:03;;;;;;;2.90;0.68;;;;;;;20.03;66.61;100558.75;2640061;36;20094;-78
2021/08/15 08:35:30;;;;;;;2.30;0.75;;;;;;;20.09;66.80;100552.19;2623500;36;20042;-77
2021/08/15 08:37:58;;;;;;;4.70;0.70;;;;;;;20.19;66.94;100563.91;2622758;36;20026;-78
2021/08/15 08:40:25;;;;;;;1.67;0.47;;;;;;;20.20;66.96;100560.28;2623312;36;20034;-78
2021/08/15 08:42:52;;;;;;;2.22;0.40;;;;;;;20.17;66.92;100555.19;2623694;36;20085;-77
2021/08/15 08:45:23;;;;;;;1.02;0.57;;;;;;;20.29;66.63;100565.00;2623400;36;20035;-77
2021/08/15 08:47:54;;;;;;;2.90;0.90;;;;;;;20.31;66.63;100571.03;2624249;36;20031;-78
2021/08/15 08:50:22;;;;;;;1.20;0.60;;;;;;;20.26;67.13;100565.19;2642439;36;20700;-78
2021/08/15 08:52:49;;;;;;;1.42;0.52;;;;;;;20.26;66.55;100562.53;2623984;36;20038;-79
2021/08/15 08:55:17;;;;;;;2.13;0.73;;;;;;;20.23;67.02;100560.09;2625553;36;20051;-77
2021/08/15 08:57:46;;;;;;;3.20;1.05;;;;;;;20.19;66.69;100555.94;2641994;36;20034;-78
2021/08/15 09:00:16;;;;;;;1.05;0.60;;;;;;;20.35;67.21;100569.91;2641311;36;20082;-78
2021/08/15 09:02:43;;;;;;;1.45;0.70;;;;;;;20.36;67.05;100584.84;2641296;36;20038;-77
2021/08/15 09:05:10;;;;;;;;;;;;;;;20.50;66.66;100573.38;2622560;36;20617;-77
2021/08/15 09:07:39;;;;;;;2.50;1.40;;;;;;;20.45;66.49;100573.66;2624694;36;19988;-79
2021/08/15 09:10:10;;;;;;;2.85;0.90;;;;;;;20.53;66.89;100577.63;2641135;36;20468;-78
2021/08/15 09:12:43;;;;;;;3.17;0.70;;;;;;;20.60;66.66;100570.97;2624008;36;20070;-78
2021/08/15 09:15:15;;;;;;;2.92;0.90;;;;;;;20.61;66.71;100576.16;2640261;36;20040;-77
2021/08/15 09:17:43;;;;;;;4.10;1.30;;;;;;;20.65;66.88;100571.50;2624181;36;20083;-78
2021/08/15 09:20:14;;;;;;;2.05;0.80;;;;;;;20.81;66.74;100582.78;2640217;36;20058;-78
2021/08/15 09:22:41;;;;;;;4.65;0.98;;;;;;;20.85;66.53;100568.38;2620168;36;20035;-79
2021/08/15 09:25:10;;;;;;;2.20;0.88;;;;;;;21.09;65.65;100578.28;2620478;36;20650;-78
2021/08/15 09:27:43;;;;;;;2.00;0.82;;;;;;;21.27;66.28;100569.03;2637024;36;20034;-78
2021/08/15 09:30:22;;;;;;;4.10;0.93;;;;;;;21.45;65.91;100573.09;2619218;36;20057;-78
2021/08/15 09:32:56;;;;;;;3.08;1.17;;;;;;;21.63;65.32;100575.41;2638023;36;20076;-78
2021/08/15 09:35:23;;;;;;;4.25;1.10;;;;;;;21.68;63.98;100570.63;2637555;36;20672;-77
2021/08/15 09:38:00;;;;;;;1.50;0.70;;;;;;;21.85;64.87;100567.63;2620841;31;20049;-78
2021/08/15 09:40:44;;;;;;;3.10;0.83;;;;;;;21.93;63.90;100567.91;2621737;36;21292;-78
2021/08/15 09:43:24;;;;;;;2.92;0.88;;;;;;;22.02;63.86;100567.25;2638344;36;20495;-79
2021/08/15 09:45:56;;;;;;;2.63;0.88;;;;;;;22.09;64.26;100577.44;2640526;36;20026;-78
2021/08/15 09:48:24;;;;;;;2.28;0.55;;;;;;;22.10;63.63;100579.13;2620070;36;20042;-78
2021/08/15 09:51:05;;;;;;;2.90;1.00;;;;;;;22.21;64.05;100577.44;2618727;36;20023;-77
2021/08/15 09:53:33;;;;;;;0.73;0.52;;;;;;;22.20;63.63;100585.50;2638495;36;20034;-79
2021/08/15 09:56:03;;;;;;;3.42;1.10;;;;;;;22.22;62.72;100578.28;2618623;36;20587;-78
2021/08/15 09:58:30;;;;;;;4.40;1.17;;;;;;;22.25;62.63;100578.91;2639014;36;20041;-78
2021/08/15 10:01:01;;;;;;;;;;;;;;;22.43;63.93;100587.31;2619768;36;20105;-78
2021/08/15 10:03:41;;;;;;;2.95;1.00;;;;;;;22.45;62.80;100577.41;2621538;31;19959;-78
2021/08/15 10:06:13;;;;;;;1.58;0.60;;;;;;;22.48;62.93;100579.00;2638186;36;20042;-79
2021/08/15 10:08:41;;;;;;;1.33;0.50;;;;;;;22.52;62.37;100585.81;2617466;36;20557;-78
2021/08/15 10:11:09;;;;;;;;;;;;;;;22.79;64.08;100588.19;2637537;36;20026;-78
2021/08/15 10:13:36;;;;;;;2.83;0.77;;;;;;;22.85;62.26;100581.56;2620632;36;19953;-78
2021/08/15 10:16:08;;;;;;;1.90;1.00;;;;;;;23.18;62.15;100588.81;2618321;36;20038;-80
2021/08/15 10:18:41;;;;;;;1.88;0.85;;;;;;;23.45;61.07;100584.00;2623068;36;20114;-79
2021/08/15 10:21:18;;;;;;;1.15;0.80;;;;;;;23.68;61.10;100586.72;2635857;36;20045;-79
2021/08/15 10:23:46;;;;;;;;;;;;;;;23.90;62.40;100592.03;2637400;36;20055;-79
2021/08/15 10:26:25;;;;;;;3.25;1.02;;;;;;;23.95;60.40;100589.84;2629978;36;20014;-79
2021/08/15 10:28:55;;;;;;;1.10;0.57;;;;;;;23.88;59.36;100593.97;2638335;36;20037;-79
2021/08/15 10:31:23;;;;;;;1.73;0.90;;;;;;;23.83;58.04;100596.16;2620566;36;20039;-78
2021/08/15 10:33:57;;;;;;;1.30;0.80;;;;;;;23.85;58.76;100594.22;2641483;36;20042;-79
2021/08/15 10:36:27;;;;;;;4.63;1.17;;;;;;;23.76;58.38;100589.59;2641028;36;20086;-79
2021/08/15 10:38:57;;;;;;;0.80;0.70;;;;;;;23.65;58.77;100578.94;2621438;36;20034;-79
2021/08/15 10:41:46;;;;;;;1.08;0.60;;;;;;;23.75;59.76;100594.09;2621899;36;20059;-79
2021/08/15 10:44:15;;;;;;;1.08;0.57;;;;;;;23.74;59.67;100579.06;2585335;36;2004624;-79
2021/08/15 10:47:10;;;;;;;2.05;0.90;;;;;;;24.10;61.10;100581.56;2620011;31;20528;-79
2021/08/15 10:49:56;;;;;;;2.80;0.98;;;;;;;24.45;60.72;100587.56;2579965;36;2004401;-79
2021/08/15 10:52:31;;;;;;;1.93;0.83;;;;;;;24.85;59.13;100584.25;2665871;36;21918;-79
2021/08/15 10:55:01;;;;;;;1.85;0.73;;;;;;;25.12;57.11;100577.56;369749;36;10002758;-79
2021/08/15 10:57:45;;;;;;;2.28;0.95;;;;;;;25.63;57.70;100577.53;2635441;36;20087;-80
2021/08/15 11:00:32;;;;;;;3.03;1.08;;;;;;;26.08;57.73;100591.34;2634643;31;20447;-80
2021/08/15 11:03:21;;;;;;;0.55;0.50;;;;;;;26.30;55.83;100579.53;2633152;36;20042;-79
2021/08/15 11:05:49;;;;;;;2.08;1.00;;;;;;;26.73;53.79;100574.81;2633827;36;20034;-80
2021/08/15 11:08:34;;;;;;;3.75;0.98;;;;;;;27.19;54.64;100591.97;2614491;36;20142;-79
2021/08/15 11:11:09;;;;;;;1.95;0.68;;;;;;;27.29;52.97;100592.81;2621475;36;20031;-79
2021/08/15 11:13:38;;;;;;;2.40;0.93;;;;;;;27.29;50.87;100595.50;2634745;36;20611;-79
2021/08/15 11:16:27;;;;;;;3.75;1.52;;;;;;;27.32;51.78;100593.38;2615573;36;20045;-79
2021/08/15 11:19:07;;;;;;;4.07;1.35;;;;;;;27.23;51.14;100598.75;2634372;36;20038;-79
2021/08/15 11:22:08;;;;;;;3.28;1.10;;;;;;;27.10;51.13;100602.56;2636398;36;20038;-79
2021/08/15 11:24:42;;;;;;;3.22;0.93;;;;;;;26.88;49.31;100602.88;2585401;36;2004651;-80
2021/08/15 11:27:30;;;;;;;0.70;0.55;;;;;;;26.68;50.79;100594.00;2637698;36;20546;-78
2021/08/15 11:30:01;;;;;;;1.48;1.10;;;;;;;26.55;50.40;100588.91;2639093;36;20035;-78
2021/08/15 11:32:30;;;;;;;1.60;0.80;;;;;;;26.52;50.72;100605.25;2619634;36;20035;-79
2021/08/15 11:35:02;;;;;;;2.33;1.20;;;;;;;26.47;48.41;100602.16;2617825;36;20035;-79
2021/08/15 11:37:46;;;;;;;3.70;1.00;;;;;;;26.58;51.57;100615.41;2636577;36;20038;-79